createdAt,value
2023-03-08T00:01:29.184Z,45.97
2023-03-08T00:04:34.034Z,45.91
2023-03-08T00:07:36.751Z,45.70
2023-03-08T00:10:39.238Z,45.48
2023-03-08T00:13:42.082Z,45.55
2023-03-08T00:16:44.686Z,45.05
2023-03-08T00:19:48.518Z,45.14
2023-03-08T00:22:50.877Z,45.37
2023-03-08T00:25:53.364Z,45.32
2023-03-08T00:28:55.947Z,45.66
2023-03-08T00:31:58.507Z,45.65
2023-03-08T00:35:02.836Z,45.92
2023-03-08T00:38:05.336Z,45.47
2023-03-08T00:41:08.002Z,45.72
2023-03-08T00:44:10.539Z,46.13
2023-03-08T00:47:13.125Z,46.31
2023-03-08T00:50:17.462Z,46.46
2023-03-08T00:53:20.386Z,46.29
2023-03-08T00:56:22.848Z,46.63
2023-03-08T00:59:25.434Z,46.50
2023-03-08T01:02:27.984Z,46.27
2023-03-08T01:05:31.973Z,46.32
2023-03-08T01:08:34.763Z,46.37
2023-03-08T01:11:37.843Z,47.14
2023-03-08T01:14:40.330Z,47.46
2023-03-08T01:17:42.880Z,47.95
2023-03-08T01:20:46.746Z,48.22
2023-03-08T01:23:49.228Z,48.78
2023-03-08T01:26:53.744Z,48.94
2023-03-08T01:29:56.268Z,49.83
2023-03-08T01:32:58.789Z,49.84
2023-03-08T01:36:04.176Z,50.19
2023-03-08T01:39:06.630Z,50.34
2023-03-08T01:42:09.502Z,50.60
2023-03-08T01:45:45.523Z,50.98
2023-03-08T01:48:50.981Z,50.83
2023-03-08T01:51:56.832Z,50.67
2023-03-08T01:55:01.421Z,51.03
2023-03-08T01:58:04.010Z,51.89
2023-03-08T02:01:06.880Z,52.00
2023-03-08T02:04:10.591Z,52.00
2023-03-08T02:07:14.432Z,51.98
2023-03-08T02:10:17.079Z,52.21
2023-03-08T02:13:21.754Z,51.85
2023-03-08T02:16:24.383Z,51.28
2023-03-08T02:19:30.655Z,50.93
2023-03-08T02:22:41.175Z,51.07
2023-03-08T02:25:51.381Z,50.67
2023-03-08T02:28:53.890Z,50.81
2023-03-08T02:31:56.367Z,51.08
2023-03-08T02:34:59.056Z,50.64
2023-03-08T02:38:03.023Z,50.65
2023-03-08T02:41:05.747Z,50.34
2023-03-08T02:44:08.235Z,50.24
2023-03-08T02:47:11.020Z,49.86
2023-03-08T02:50:13.543Z,49.88
2023-03-08T02:53:17.439Z,49.43
2023-03-08T02:56:19.878Z,49.33
2023-03-08T02:59:23.956Z,49.29
2023-03-08T03:02:26.624Z,49.34
2023-03-08T03:05:29.334Z,49.44
2023-03-08T03:08:33.248Z,48.95
2023-03-08T03:11:35.618Z,49.20
2023-03-08T03:14:38.291Z,49.46
2023-03-08T03:17:40.759Z,49.20
2023-03-08T03:20:43.272Z,48.73
2023-03-08T03:23:47.070Z,48.93
2023-03-08T03:26:50.967Z,48.63
2023-03-08T03:29:53.424Z,48.61
2023-03-08T03:32:55.894Z,48.72
2023-03-08T03:35:58.542Z,48.79
2023-03-08T03:39:02.560Z,48.29
2023-03-08T03:42:05.479Z,48.52
2023-03-08T03:45:08.756Z,49.01
2023-03-08T03:48:11.346Z,48.66
2023-03-08T03:51:18.496Z,48.58
2023-03-08T03:54:22.405Z,48.87
2023-03-08T03:57:24.880Z,48.56
2023-03-08T04:00:27.675Z,48.52
2023-03-08T04:03:30.199Z,48.90
2023-03-08T04:06:34.310Z,48.52
2023-03-08T04:09:38.110Z,48.90
2023-03-08T04:12:40.705Z,48.54
2023-03-08T04:15:43.240Z,48.66
2023-03-08T04:18:45.774Z,48.24
2023-03-08T04:21:48.525Z,48.53
2023-03-08T04:24:52.373Z,48.32
2023-03-08T04:27:54.747Z,48.40
2023-03-08T04:30:57.352Z,47.95
2023-03-08T04:33:59.933Z,48.16
2023-03-08T04:37:02.507Z,48.32
2023-03-08T04:40:09.373Z,47.98
2023-03-08T04:43:11.968Z,48.04
2023-03-08T04:46:15.144Z,48.15
2023-03-08T04:49:17.704Z,48.20
2023-03-08T04:52:20.750Z,48.96
2023-03-08T04:55:24.589Z,48.50
2023-03-08T04:58:27.376Z,48.13
2023-03-08T05:01:29.928Z,47.97
2023-03-08T05:04:32.417Z,47.49
2023-03-08T05:07:34.956Z,47.68
2023-03-08T05:10:39.138Z,47.81
2023-03-08T05:13:41.808Z,47.67
2023-03-08T05:16:44.350Z,48.05
2023-03-08T05:19:46.871Z,47.85
2023-03-08T05:22:58.710Z,47.90
2023-03-08T05:26:05.180Z,48.04
2023-03-08T05:29:07.726Z,48.04
2023-03-08T05:32:12.121Z,48.08
2023-03-08T05:35:18.231Z,47.25
2023-03-08T05:38:20.870Z,47.77
2023-03-08T05:41:24.696Z,47.42
2023-03-08T05:44:27.150Z,46.94
2023-03-08T05:47:30.412Z,47.28
2023-03-08T05:50:32.993Z,47.40
2023-03-08T05:53:35.923Z,47.87
2023-03-08T05:56:39.723Z,47.76
2023-03-08T05:59:42.088Z,47.32
2023-03-08T06:02:44.962Z,47.43
2023-03-08T06:05:47.488Z,47.60
2023-03-08T06:08:50.031Z,47.38
2023-03-08T06:11:53.852Z,47.79
2023-03-08T06:14:56.223Z,47.73
2023-03-08T06:17:58.728Z,47.66
2023-03-08T06:21:04.885Z,47.71
2023-03-08T06:24:07.720Z,47.72
2023-03-08T06:27:11.576Z,47.92
2023-03-08T06:30:14.542Z,48.02
2023-03-08T06:33:17.389Z,48.08
2023-03-08T06:36:21.380Z,47.87
2023-03-08T06:39:23.965Z,47.55
2023-03-08T06:42:40.259Z,47.71
2023-03-08T06:45:43.913Z,47.79
2023-03-08T06:48:47.212Z,47.56
2023-03-08T06:51:50.067Z,46.75
2023-03-08T06:54:52.568Z,47.20
2023-03-08T06:57:56.478Z,47.13
2023-03-08T07:00:59.829Z,46.79
2023-03-08T07:04:02.553Z,46.50
2023-03-08T07:07:07.558Z,46.19
2023-03-08T07:10:11.963Z,45.77
2023-03-08T07:13:15.800Z,45.98
2023-03-08T07:16:18.352Z,45.70
2023-03-08T07:19:20.893Z,45.58
2023-03-08T07:22:23.456Z,45.23
2023-03-08T07:25:25.982Z,45.86
2023-03-08T07:28:29.959Z,45.15
2023-03-08T07:31:36.132Z,45.66
2023-03-08T07:34:38.719Z,45.05
2023-03-08T07:37:41.874Z,45.58
2023-03-08T07:40:44.925Z,45.59
2023-03-08T07:43:49.430Z,45.06
2023-03-08T07:46:51.998Z,44.79
2023-03-08T07:49:54.642Z,45.45
2023-03-08T07:52:57.167Z,44.96
2023-03-08T07:56:00.118Z,46.16
2023-03-08T07:59:03.996Z,45.98
2023-03-08T08:02:06.500Z,46.12
2023-03-08T08:05:09.725Z,45.18
2023-03-08T08:08:13.869Z,45.06
2023-03-08T08:11:17.840Z,46.15
2023-03-08T08:14:21.708Z,46.48
2023-03-08T08:17:24.230Z,46.29
2023-03-08T08:20:27.168Z,45.40
2023-03-08T08:23:29.951Z,45.96
2023-03-08T08:26:32.567Z,46.27
2023-03-08T08:29:37.786Z,47.37
2023-03-08T08:32:40.505Z,48.52
2023-03-08T08:35:43.690Z,48.23
2023-03-08T08:38:47.046Z,47.47
2023-03-08T08:41:49.858Z,48.24
2023-03-08T08:44:54.943Z,48.09
2023-03-08T08:47:57.474Z,47.58
2023-03-08T08:51:00.682Z,48.85
2023-03-08T08:54:06.453Z,49.56
2023-03-08T08:57:09.133Z,49.25
2023-03-08T09:00:14.601Z,49.82
2023-03-08T09:03:17.113Z,50.68
2023-03-08T09:06:20.858Z,50.60
2023-03-08T09:09:23.495Z,49.13
2023-03-08T09:12:26.184Z,49.09
2023-03-08T09:15:30.326Z,48.06
2023-03-08T09:18:33.162Z,48.47
2023-03-08T09:21:35.733Z,49.04
2023-03-08T09:24:38.310Z,48.77
2023-03-08T09:27:42.219Z,49.47
2023-03-08T09:30:47.336Z,49.22
2023-03-08T09:33:51.915Z,48.11
2023-03-08T09:36:54.443Z,48.64
2023-03-08T09:39:56.957Z,48.65
2023-03-08T09:43:05.442Z,48.47
2023-03-08T09:46:12.491Z,46.69
2023-03-08T09:49:18.735Z,47.54
2023-03-08T09:52:24.267Z,46.33
2023-03-08T09:55:30.742Z,46.03
2023-03-08T09:58:36.468Z,45.57
2023-03-08T10:01:46.307Z,45.28
2023-03-08T10:05:11.964Z,45.27
2023-03-08T10:08:18.938Z,44.23
2023-03-08T10:11:25.799Z,43.19
2023-03-08T10:14:32.024Z,42.35
2023-03-08T10:17:41.949Z,42.53
2023-03-08T10:20:44.776Z,43.45
2023-03-08T10:23:49.052Z,44.54
2023-03-08T10:26:51.584Z,44.46
2023-03-08T10:29:55.796Z,46.00
2023-03-08T10:33:01.497Z,46.13
2023-03-08T10:36:09.571Z,48.64
2023-03-08T10:39:12.332Z,48.87
2023-03-08T10:42:16.499Z,48.92
2023-03-08T10:45:21.940Z,50.24
2023-03-08T10:48:25.811Z,49.41
2023-03-08T10:51:29.787Z,50.38
2023-03-08T10:54:32.525Z,50.11
2023-03-08T10:57:35.152Z,49.35
2023-03-08T11:00:39.184Z,48.95
2023-03-08T11:03:43.584Z,49.55
2023-03-08T11:06:46.401Z,51.77
2023-03-08T11:09:48.963Z,49.82
2023-03-08T11:13:02.540Z,47.69
2023-03-08T11:16:23.883Z,48.03
2023-03-08T11:19:44.960Z,47.32
2023-03-08T11:22:59.423Z,49.03
2023-03-08T11:26:05.289Z,49.78
2023-03-08T11:29:15.643Z,51.04
2023-03-08T11:32:39.371Z,49.77
2023-03-08T11:35:49.118Z,49.88
2023-03-08T11:38:55.758Z,51.10
2023-03-08T11:42:03.313Z,50.04
2023-03-08T11:45:17.958Z,49.01
2023-03-08T11:48:36.812Z,48.55
2023-03-08T11:51:45.701Z,47.86
2023-03-08T11:54:55.707Z,48.68
2023-03-08T11:58:02.571Z,49.25
2023-03-08T12:01:10.229Z,48.91
2023-03-08T12:04:15.295Z,49.98
2023-03-08T12:07:24.780Z,49.52
2023-03-08T12:10:29.910Z,50.12
2023-03-08T12:13:35.333Z,49.99
2023-03-08T12:16:44.079Z,51.93
2023-03-08T12:19:47.642Z,49.58
2023-03-08T12:22:57.359Z,49.76
2023-03-08T12:26:05.387Z,49.13
2023-03-08T12:29:13.721Z,48.75
2023-03-08T12:32:18.310Z,50.13
2023-03-08T12:35:32.002Z,50.07
2023-03-08T12:38:40.965Z,50.30
2023-03-08T12:41:43.646Z,51.20
2023-03-08T12:44:46.230Z,50.87
2023-03-08T12:47:57.050Z,50.20
2023-03-08T12:51:03.546Z,48.19
2023-03-08T12:54:07.364Z,49.29
2023-03-08T12:57:17.596Z,47.56
2023-03-08T13:00:28.861Z,47.73
2023-03-08T13:03:38.373Z,45.72
2023-03-08T13:07:05.351Z,49.63
2023-03-08T13:10:20.784Z,49.46
2023-03-08T13:13:38.813Z,50.86
2023-03-08T13:16:42.061Z,51.04
2023-03-08T13:19:45.191Z,50.24
2023-03-08T13:22:57.540Z,48.97
2023-03-08T13:26:13.682Z,47.24
2023-03-08T13:29:18.213Z,42.51
2023-03-08T13:32:22.380Z,46.09
2023-03-08T13:35:25.132Z,46.57
2023-03-08T13:38:29.952Z,49.05
2023-03-08T13:41:36.332Z,47.43
2023-03-08T13:44:39.279Z,45.15
2023-03-08T13:47:41.998Z,43.84
2023-03-08T13:50:46.389Z,43.04
2023-03-08T13:53:49.133Z,45.03
2023-03-08T13:56:55.077Z,45.58
2023-03-08T13:59:59.477Z,46.85
2023-03-08T14:03:06.447Z,43.75
2023-03-08T14:06:18.725Z,40.84
2023-03-08T14:09:21.918Z,40.09
2023-03-08T14:12:27.403Z,39.75
2023-03-08T14:15:30.646Z,40.23
2023-03-08T14:18:36.270Z,42.40
2023-03-08T14:21:39.061Z,44.72
2023-03-08T14:24:43.628Z,47.69
2023-03-08T14:27:47.534Z,48.68
2023-03-08T14:30:50.185Z,48.77
2023-03-08T14:34:00.320Z,48.63
2023-03-08T14:37:06.305Z,50.04
2023-03-08T14:40:21.030Z,48.73
2023-03-08T14:43:26.218Z,48.16
2023-03-08T14:46:30.151Z,48.33
2023-03-08T14:49:32.837Z,48.70
2023-03-08T14:52:37.866Z,50.62
2023-03-08T14:55:42.357Z,50.43
2023-03-08T14:58:49.300Z,50.34
2023-03-08T15:01:52.228Z,51.00
2023-03-08T15:04:54.737Z,52.88
2023-03-08T15:07:59.113Z,52.88
2023-03-08T15:11:01.677Z,52.41
2023-03-08T15:14:05.572Z,51.62
2023-03-08T15:17:08.168Z,51.63
2023-03-08T15:20:12.986Z,49.45
2023-03-08T15:23:19.701Z,45.30
2023-03-08T15:26:24.774Z,39.82
2023-03-08T15:29:29.963Z,39.38
2023-03-08T15:32:32.582Z,43.39
2023-03-08T15:35:35.181Z,45.89
2023-03-08T15:38:37.930Z,49.64
2023-03-08T15:41:40.580Z,51.66
2023-03-08T15:44:44.490Z,52.08
2023-03-08T15:47:56.700Z,52.71
2023-03-08T15:50:59.522Z,53.54
2023-03-08T15:54:02.469Z,53.57
2023-03-08T15:57:05.279Z,53.68
2023-03-08T16:00:13.022Z,54.37
2023-03-08T16:03:25.785Z,54.08
2023-03-08T16:06:28.383Z,54.76
2023-03-08T16:09:31.139Z,54.27
2023-03-08T16:12:33.901Z,54.45
2023-03-08T16:15:40.669Z,54.56
2023-03-08T16:18:44.649Z,54.67
2023-03-08T16:21:47.237Z,54.52
2023-03-08T16:24:50.188Z,56.34
2023-03-08T16:27:53.315Z,58.01
2023-03-08T16:30:58.274Z,59.43
2023-03-08T16:34:03.122Z,59.54
2023-03-08T16:37:06.473Z,59.33
2023-03-08T16:40:10.396Z,59.07
2023-03-08T16:43:13.330Z,58.29
2023-03-08T16:46:19.543Z,58.94
2023-03-08T16:49:22.957Z,60.40
2023-03-08T16:52:25.897Z,63.48
2023-03-08T16:55:28.402Z,66.06
2023-03-08T16:58:31.110Z,67.27
2023-03-08T17:01:35.079Z,68.86
2023-03-08T17:04:37.730Z,70.18
2023-03-08T17:07:40.349Z,70.53
2023-03-08T17:10:44.602Z,70.31
2023-03-08T17:13:50.789Z,70.21
2023-03-08T17:16:54.969Z,69.23
2023-03-08T17:19:58.125Z,68.20
2023-03-08T17:23:00.685Z,67.18
2023-03-08T17:26:04.730Z,67.10
2023-03-08T17:29:07.303Z,65.80
2023-03-08T17:32:11.222Z,66.56
2023-03-08T17:35:14.023Z,66.56
2023-03-08T17:38:16.459Z,66.83
2023-03-08T17:41:19.942Z,66.19
2023-03-08T17:44:22.506Z,66.34
2023-03-08T17:47:26.431Z,66.35
2023-03-08T17:50:30.928Z,67.19
2023-03-08T17:53:33.971Z,69.05
2023-03-08T17:56:38.604Z,69.71
2023-03-08T17:59:41.071Z,69.33
2023-03-08T18:02:45.028Z,68.19
2023-03-08T18:05:49.813Z,68.31
2023-03-08T18:08:52.438Z,67.62
2023-03-08T18:11:55.052Z,67.81
2023-03-08T18:14:57.683Z,66.92
2023-03-08T18:18:01.514Z,67.15
2023-03-08T18:21:13.038Z,67.59
2023-03-08T18:24:16.434Z,66.97
2023-03-08T18:27:19.054Z,67.66
2023-03-08T18:30:21.552Z,67.69
2023-03-08T18:33:25.581Z,67.14
2023-03-08T18:36:28.205Z,67.07
2023-03-08T18:39:30.767Z,67.48
2023-03-08T18:42:33.757Z,66.30
2023-03-08T18:45:36.290Z,66.88
2023-03-08T18:48:40.659Z,66.74
2023-03-08T18:51:43.921Z,65.94
2023-03-08T18:54:49.639Z,65.84
2023-03-08T18:57:52.666Z,65.44
2023-03-08T19:00:58.710Z,66.60
2023-03-08T19:04:06.030Z,66.50
2023-03-08T19:07:08.595Z,66.17
2023-03-08T19:10:14.723Z,66.26
2023-03-08T19:13:17.396Z,64.97
2023-03-08T19:16:22.966Z,65.30
2023-03-08T19:19:27.258Z,65.27
2023-03-08T19:22:30.120Z,66.20
2023-03-08T19:25:33.163Z,67.88
2023-03-08T19:28:38.250Z,67.73
2023-03-08T19:31:42.891Z,68.25
2023-03-08T19:34:48.367Z,68.10
2023-03-08T19:37:51.180Z,69.55
2023-03-08T19:40:54.114Z,70.37
2023-03-08T19:43:57.067Z,71.63
2023-03-08T19:47:00.242Z,71.61
2023-03-08T19:50:04.350Z,72.86
2023-03-08T19:53:06.959Z,73.61
2023-03-08T19:56:15.220Z,74.73
2023-03-08T19:59:18.152Z,74.61
2023-03-08T20:02:20.696Z,75.30
2023-03-08T20:05:25.078Z,74.76
2023-03-08T20:08:27.850Z,74.59
2023-03-08T20:11:30.792Z,74.81
2023-03-08T20:14:33.361Z,74.28
2023-03-08T20:17:38.614Z,73.82
2023-03-08T20:20:42.811Z,73.33
2023-03-08T20:23:45.414Z,74.09
2023-03-08T20:26:48.068Z,72.88
2023-03-08T20:29:53.073Z,73.67
2023-03-08T20:32:56.764Z,73.72
2023-03-08T20:36:01.531Z,73.31
2023-03-08T20:39:04.695Z,74.05
2023-03-08T20:42:07.399Z,73.92
2023-03-08T20:45:10.690Z,73.09
2023-03-08T20:48:13.203Z,73.02
2023-03-08T20:51:18.294Z,72.34
2023-03-08T20:54:20.856Z,73.38
2023-03-08T20:57:23.464Z,72.47
2023-03-08T21:00:26.134Z,75.29
2023-03-08T21:03:28.658Z,77.87
2023-03-08T21:06:32.869Z,79.41
2023-03-08T21:09:35.862Z,80.11
2023-03-08T21:12:39.177Z,81.27
2023-03-08T21:15:41.968Z,80.96
2023-03-08T21:18:45.827Z,81.75
2023-03-08T21:21:51.113Z,82.30
2023-03-08T21:24:53.690Z,82.34
2023-03-08T21:27:56.201Z,82.36
2023-03-08T21:30:58.724Z,81.94
2023-03-08T21:34:02.626Z,82.60
2023-03-08T21:37:06.509Z,83.09
2023-03-08T21:40:11.176Z,83.82
2023-03-08T21:43:13.777Z,83.58
2023-03-08T21:46:17.141Z,83.73
2023-03-08T21:49:21.712Z,84.61
2023-03-08T21:52:25.632Z,84.76
2023-03-08T21:55:28.254Z,84.91
2023-03-08T21:58:30.752Z,84.92
2023-03-08T22:01:33.670Z,84.95
2023-03-08T22:04:36.157Z,85.00
2023-03-08T22:07:40.201Z,85.75
2023-03-08T22:10:42.688Z,86.53
2023-03-08T22:13:45.637Z,86.84
2023-03-08T22:16:48.096Z,87.54
2023-03-08T22:19:51.817Z,88.12
2023-03-08T22:22:56.060Z,87.87
2023-03-08T22:25:58.842Z,87.86
2023-03-08T22:29:01.497Z,87.04
2023-03-08T22:32:04.705Z,87.05
2023-03-08T22:35:08.029Z,86.10
2023-03-08T22:38:11.942Z,85.55
2023-03-08T22:41:15.904Z,86.29
2023-03-08T22:44:18.446Z,86.59
2023-03-08T22:47:20.986Z,85.72
2023-03-08T22:50:23.540Z,85.67
2023-03-08T22:53:27.460Z,85.76
2023-03-08T22:56:30.581Z,86.28
2023-03-08T22:59:33.061Z,86.39
2023-03-08T23:02:35.600Z,85.59
2023-03-08T23:05:38.318Z,86.28
2023-03-08T23:08:42.359Z,85.83
2023-03-08T23:11:45.351Z,86.39
2023-03-08T23:14:47.974Z,87.76
2023-03-08T23:17:50.619Z,87.35
2023-03-08T23:20:53.200Z,85.56
2023-03-08T23:23:57.209Z,84.53
2023-03-08T23:27:01.909Z,84.27
2023-03-08T23:30:05.194Z,82.82
2023-03-08T23:33:07.649Z,83.11
2023-03-08T23:36:12.212Z,83.57
2023-03-08T23:39:16.083Z,83.34
2023-03-08T23:42:18.611Z,82.36
2023-03-08T23:45:21.250Z,82.47
2023-03-08T23:48:23.786Z,82.69
2023-03-08T23:51:28.008Z,82.43
2023-03-08T23:54:31.884Z,82.50
2023-03-08T23:57:34.445Z,82.98
